Time;durP1;ratioP1;P1;durP2;ratioP2;P2;SDS_P1;SDS_P2;PMS_P1;PMS_P2;Temp;Humidity;BMP_temperature;BMP_pressure;BME280_temperature;BME280_humidity;BME280_pressure;Samples;Min_cycle;Max_cycle;Signal;HPM_P1;HPM_P2
2021/12/09 00:01:01;;;;;;;8.88;4.53;;;;;;;2.69;73.36;100032.23;1812316;77;21076;-57
2021/12/09 00:03:24;;;;;;;8.68;4.10;;;;;;;2.75;73.39;100038.38;1798782;77;21045;-57
2021/12/09 00:05:50;;;;;;;7.72;4.03;;;;;;;2.77;73.47;100031.80;1811066;77;21125;-58
2021/12/09 00:08:18;;;;;;;7.97;4.12;;;;;;;2.78;73.59;100039.52;1819045;77;21090;-58
2021/12/09 00:10:44;;;;;;;8.18;4.42;;;;;;;2.76;73.55;100046.56;1824564;77;23367;-58
2021/12/09 00:13:11;;;;;;;8.68;4.10;;;;;;;2.75;73.62;100048.77;1794381;77;21057;-58
2021/12/09 00:15:38;;;;;;;7.33;3.33;;;;;;;2.79;73.54;100054.64;1785365;77;21692;-58
2021/12/09 00:18:05;;;;;;;9.53;3.87;;;;;;;2.88;73.19;100049.44;1764159;78;21043;-58
2021/12/09 00:20:31;;;;;;;7.25;3.37;;;;;;;2.89;73.21;100048.06;1793294;78;21543;-58
2021/12/09 00:22:58;;;;;;;7.12;3.95;;;;;;;2.85;73.25;100051.73;1804776;77;21250;-58
2021/12/09 00:25:24;;;;;;;9.13;4.25;;;;;;;2.81;73.23;100054.56;1804254;78;21038;-58
2021/12/09 00:27:52;;;;;;;6.87;3.67;;;;;;;2.75;73.38;100059.63;1802273;78;21026;-58
2021/12/09 00:30:20;;;;;;;7.92;4.03;;;;;;;2.72;73.34;100059.35;1806482;77;21023;-58
2021/12/09 00:32:47;;;;;;;10.55;3.75;;;;;;;2.77;73.31;100061.25;1771008;78;21144;-58
2021/12/09 00:35:15;;;;;;;7.37;3.92;;;;;;;2.79;73.33;100060.70;1771396;78;21108;-58
2021/12/09 00:37:53;;;;;;;7.28;3.72;;;;;;;2.76;73.53;100064.75;1801806;77;21003;-58
2021/12/09 00:40:10;;;;;;;7.80;3.77;;;;;;;2.73;73.57;100058.88;1799822;77;21038;-58
2021/12/09 00:42:37;;;;;;;7.05;3.47;;;;;;;2.69;73.64;100058.64;1774091;78;21081;-58
2021/12/09 00:45:04;;;;;;;7.80;3.15;;;;;;;2.69;73.49;100062.11;1805367;77;21181;-58
2021/12/09 00:47:31;;;;;;;6.78;3.40;;;;;;;2.74;73.51;100064.00;1812299;77;21104;-58
2021/12/09 00:49:57;;;;;;;9.25;3.67;;;;;;;2.79;73.42;100071.09;1812390;77;21081;-58
2021/12/09 00:52:24;;;;;;;7.08;3.40;;;;;;;2.82;73.41;100070.55;1781648;78;21046;-58
2021/12/09 00:54:52;;;;;;;7.25;3.77;;;;;;;2.76;73.52;100066.52;1826470;76;21100;-58
2021/12/09 00:57:18;;;;;;;6.97;3.58;;;;;;;2.72;73.61;100068.88;1792180;77;21086;-58
2021/12/09 00:59:45;;;;;;;7.50;3.90;;;;;;;2.69;73.72;100071.20;1814807;77;21139;-59
2021/12/09 01:02:12;;;;;;;7.53;3.50;;;;;;;2.72;73.73;100071.48;1774927;77;21581;-59
2021/12/09 01:04:39;;;;;;;8.08;4.40;;;;;;;2.79;73.44;100072.83;1795805;77;21027;-59
2021/12/09 01:07:06;;;;;;;6.47;3.22;;;;;;;2.78;73.41;100070.70;1795363;78;21581;-59
2021/12/09 01:09:32;;;;;;;7.20;3.50;;;;;;;2.73;73.45;100072.70;1784046;79;21031;-59
2021/12/09 01:11:59;;;;;;;7.00;3.70;;;;;;;2.63;73.50;100066.31;1761072;78;21045;-59
2021/12/09 01:14:25;;;;;;;7.87;3.35;;;;;;;2.58;73.68;100064.41;1763077;79;21042;-59
2021/12/09 01:16:53;;;;;;;8.15;4.00;;;;;;;2.65;73.71;100067.06;1828184;77;21659;-59
2021/12/09 01:19:19;;;;;;;6.85;3.35;;;;;;;2.65;73.78;100067.06;1754848;78;21066;-57
2021/12/09 01:21:46;;;;;;;7.85;4.12;;;;;;;2.63;73.97;100064.19;1819162;77;20987;-57
2021/12/09 01:24:12;;;;;;;8.23;3.85;;;;;;;2.60;74.06;100067.30;1783120;78;21219;-57
2021/12/09 01:26:39;;;;;;;7.92;4.08;;;;;;;2.56;74.07;100066.27;1809220;77;21120;-57
2021/12/09 01:29:14;;;;;;;7.75;4.25;;;;;;;2.60;74.04;100072.49;1790576;78;21050;-58
2021/12/09 01:31:37;;;;;;;6.97;3.17;;;;;;;2.68;73.94;100076.00;1810970;77;21211;-58
2021/12/09 01:34:03;;;;;;;6.97;3.67;;;;;;;2.67;73.95;100069.59;1809497;77;21023;-58
2021/12/09 01:36:33;;;;;;;5.90;2.90;;;;;;;2.63;74.12;100070.68;1762606;78;21259;-58
2021/12/09 01:39:01;;;;;;;5.58;2.65;;;;;;;2.57;74.27;100068.78;1789056;78;21058;-58
2021/12/09 01:41:28;;;;;;;6.20;3.45;;;;;;;2.60;74.27;100079.45;1767056;79;21062;-58
2021/12/09 01:43:54;;;;;;;7.97;3.60;;;;;;;2.68;74.23;100086.39;1819482;77;21014;-58
2021/12/09 01:46:20;;;;;;;6.65;3.47;;;;;;;2.71;74.20;100081.52;1795323;77;21133;-58
2021/12/09 01:48:50;;;;;;;8.88;3.65;;;;;;;2.68;74.05;100083.80;1790587;78;21964;-58
2021/12/09 01:51:35;;;;;;;8.48;3.30;;;;;;;2.62;74.24;100084.11;1791346;79;21019;-58
2021/12/09 01:54:23;;;;;;;6.42;3.25;;;;;;;2.57;74.44;100083.50;1796779;77;21102;-58
2021/12/09 01:56:47;;;;;;;6.35;3.30;;;;;;;2.62;74.43;100085.88;1817187;76;21137;-58
2021/12/09 01:59:14;;;;;;;6.42;3.40;;;;;;;2.69;74.11;100079.43;1754704;80;21041;-58
2021/12/09 02:01:40;;;;;;;7.22;3.35;;;;;;;2.70;74.05;100081.13;1785586;77;21061;-58
2021/12/09 02:04:10;;;;;;;6.87;3.10;;;;;;;2.66;74.17;100086.94;1801185;78;21085;-58
2021/12/09 02:06:40;;;;;;;6.33;3.12;;;;;;;2.63;74.35;100087.56;1813529;77;21101;-58
2021/12/09 02:09:13;;;;;;;6.28;2.92;;;;;;;2.60;74.29;100088.55;1779229;78;20987;-58
2021/12/09 02:11:40;;;;;;;7.12;3.00;;;;;;;2.59;74.17;100089.02;1813733;77;21084;-58
2021/12/09 02:14:07;;;;;;;6.10;2.85;;;;;;;2.67;74.15;100089.07;1797153;77;21065;-59
2021/12/09 02:16:34;;;;;;;6.87;3.12;;;;;;;2.71;74.13;100101.00;1804446;77;21591;-58
2021/12/09 02:19:02;;;;;;;6.80;3.10;;;;;;;2.69;74.06;100092.42;1809083;77;21102;-57
2021/12/09 02:21:31;;;;;;;8.05;2.77;;;;;;;2.66;74.07;100093.44;1748393;78;21105;-59
2021/12/09 02:24:01;;;;;;;6.62;3.40;;;;;;;2.62;74.04;100098.39;1808433;77;21035;-57
2021/12/09 02:26:33;;;;;;;6.10;3.08;;;;;;;2.60;73.97;100104.13;1797859;78;21126;-57
2021/12/09 02:28:59;;;;;;;6.87;2.80;;;;;;;2.69;73.96;100102.81;1814216;77;21074;-57
2021/12/09 02:31:27;;;;;;;6.60;2.75;;;;;;;2.74;73.81;100109.91;1773791;79;21042;-57
2021/12/09 02:33:54;;;;;;;5.90;2.42;;;;;;;2.69;73.93;100112.77;1817870;76;21614;-57
2021/12/09 02:36:20;;;;;;;6.20;3.02;;;;;;;2.67;73.95;100118.48;1792978;76;21542;-57
2021/12/09 02:38:48;;;;;;;7.47;3.15;;;;;;;2.64;73.94;100114.77;1789918;78;21161;-57
2021/12/09 02:41:23;;;;;;;6.85;2.40;;;;;;;2.65;73.96;100111.23;1790787;79;21520;-57
2021/12/09 02:43:54;;;;;;;6.28;2.75;;;;;;;2.70;73.70;100117.50;1746772;78;21054;-57
2021/12/09 02:46:23;;;;;;;5.80;2.50;;;;;;;2.72;73.77;100120.41;1801136;78;21058;-57
2021/12/09 02:48:50;;;;;;;7.17;2.80;;;;;;;2.70;73.89;100119.63;1804573;77;21033;-57
2021/12/09 02:51:17;;;;;;;5.17;2.42;;;;;;;2.70;73.88;100122.69;1776562;78;21229;-57
2021/12/09 02:53:43;;;;;;;5.17;2.37;;;;;;;2.66;73.74;100128.51;1777243;78;21007;-57
2021/12/09 02:56:11;;;;;;;5.20;2.52;;;;;;;2.66;73.67;100123.78;1776107;78;21528;-58
2021/12/09 02:58:39;;;;;;;5.65;2.30;;;;;;;2.72;73.58;100128.64;1775552;78;21007;-57
2021/12/09 03:01:15;;;;;;;5.40;2.55;;;;;;;2.74;73.53;100125.50;1803113;78;21436;-57
2021/12/09 03:03:55;;;;;;;5.00;2.25;;;;;;;2.71;73.72;100129.11;1797975;77;21860;-57
2021/12/09 03:06:20;;;;;;;6.15;2.70;;;;;;;2.70;73.74;100130.02;1800845;77;21051;-56
2021/12/09 03:08:46;;;;;;;4.97;2.22;;;;;;;2.64;73.78;100130.35;1798713;78;20979;-57
2021/12/09 03:11:17;;;;;;;6.22;2.55;;;;;;;2.68;73.77;100134.46;1790757;79;20947;-57
2021/12/09 03:13:44;;;;;;;6.60;3.10;;;;;;;2.75;73.51;100134.52;1815560;76;21081;-58
2021/12/09 03:16:12;;;;;;;6.80;2.72;;;;;;;2.75;73.42;100127.19;1804436;77;21049;-58
2021/12/09 03:18:47;;;;;;;6.42;2.75;;;;;;;2.72;73.56;100124.30;1782938;78;20988;-58
2021/12/09 03:21:17;;;;;;;6.28;2.98;;;;;;;2.69;73.70;100134.85;1805011;77;21013;-58
2021/12/09 03:23:43;;;;;;;6.35;2.70;;;;;;;2.66;73.75;100129.81;1770175;78;21015;-58
2021/12/09 03:26:10;;;;;;;7.40;3.25;;;;;;;2.69;73.61;100129.66;1800980;78;20995;-57
2021/12/09 03:28:36;;;;;;;6.50;2.50;;;;;;;2.72;73.45;100129.94;1761743;78;21683;-57
2021/12/09 03:31:03;;;;;;;6.35;2.83;;;;;;;2.70;73.53;100130.48;1808841;77;21046;-57
2021/12/09 03:33:30;;;;;;;7.47;3.17;;;;;;;2.67;73.70;100130.17;1820971;77;21055;-58
2021/12/09 03:35:59;;;;;;;5.25;2.58;;;;;;;2.65;73.88;100133.78;1791100;78;21497;-58
2021/12/09 03:38:25;;;;;;;7.15;3.47;;;;;;;2.65;74.00;100133.31;1813003;77;21050;-58
2021/12/09 03:40:52;;;;;;;6.08;2.35;;;;;;;2.68;73.75;100133.62;1802820;77;21097;-57
2021/12/09 03:43:18;;;;;;;5.35;2.27;;;;;;;2.75;73.57;100132.39;1795224;77;21578;-58
2021/12/09 03:45:45;;;;;;;4.70;1.90;;;;;;;2.81;73.54;100139.02;1799800;77;20966;-58
2021/12/09 03:48:11;;;;;;;7.03;3.22;;;;;;;2.84;73.64;100132.36;1779857;77;21011;-58
2021/12/09 03:50:39;;;;;;;6.85;3.20;;;;;;;2.80;73.55;100130.39;1797916;78;21560;-58
2021/12/09 03:53:05;;;;;;;6.65;2.77;;;;;;;2.78;73.52;100134.83;1778658;77;21523;-58
2021/12/09 03:55:32;;;;;;;6.97;2.92;;;;;;;2.76;73.48;100136.67;1769811;78;21040;-57
2021/12/09 03:57:59;;;;;;;5.20;2.58;;;;;;;2.79;73.27;100138.66;1820436;77;22307;-57
2021/12/09 04:00:28;;;;;;;6.65;2.87;;;;;;;2.83;73.32;100144.99;1811557;77;20983;-58
2021/12/09 04:02:53;;;;;;;7.60;3.27;;;;;;;2.88;73.36;100142.53;1819301;77;22064;-58
2021/12/09 04:05:19;;;;;;;6.35;3.30;;;;;;;2.86;73.34;100141.77;1810223;77;21132;-60
2021/12/09 04:10:45;;;;;;;6.37;3.25;;;;;;;2.82;73.47;100142.83;1790353;78;22802;-59
2021/12/09 04:13:13;;;;;;;6.75;2.85;;;;;;;2.76;73.52;100145.77;1765410;78;22198;-59
2021/12/09 04:15:40;;;;;;;5.65;2.75;;;;;;;2.79;73.48;100149.05;1771815;80;21227;-58
2021/12/09 04:18:07;;;;;;;6.55;3.02;;;;;;;2.90;73.20;100147.18;1769263;80;21452;-58
2021/12/09 04:20:34;;;;;;;6.53;2.77;;;;;;;2.94;73.08;100151.75;1766899;80;21089;-58
2021/12/09 04:23:00;;;;;;;7.10;3.85;;;;;;;2.90;73.11;100156.75;1776348;80;21018;-58
2021/12/09 04:25:27;;;;;;;7.25;3.70;;;;;;;2.84;73.13;100156.61;1738449;80;22429;-58
2021/12/09 04:27:55;;;;;;;9.75;3.25;;;;;;;2.79;73.25;100162.04;1764517;80;21136;-57
2021/12/09 04:30:23;;;;;;;7.25;3.33;;;;;;;2.74;73.32;100155.37;1709761;80;21641;-59
2021/12/09 04:32:51;;;;;;;7.72;3.22;;;;;;;2.74;73.28;100169.23;1732764;81;21923;-58
2021/12/09 04:35:18;;;;;;;7.55;3.30;;;;;;;2.81;73.20;100168.45;1734418;80;21106;-58
2021/12/09 04:37:47;;;;;;;6.53;3.00;;;;;;;2.85;73.10;100163.94;1709008;83;21062;-57
2021/12/09 04:40:14;;;;;;;6.83;3.35;;;;;;;2.79;73.30;100171.13;1706832;83;21167;-58
2021/12/09 04:42:40;;;;;;;6.83;3.15;;;;;;;2.76;73.22;100168.69;1705873;83;21079;-58
2021/12/09 04:45:08;;;;;;;7.37;3.83;;;;;;;2.71;73.38;100170.68;1709225;82;21461;-57
2021/12/09 04:47:35;;;;;;;5.58;2.75;;;;;;;2.71;73.39;100175.05;1690028;83;21048;-58
2021/12/09 04:50:04;;;;;;;6.42;3.58;;;;;;;2.82;73.36;100175.78;1711728;83;21622;-59
2021/12/09 04:52:30;;;;;;;7.17;3.15;;;;;;;2.83;73.27;100177.48;1686675;83;21896;-58
2021/12/09 04:54:57;;;;;;;6.83;3.60;;;;;;;2.78;73.33;100175.94;1710216;82;21146;-59
2021/12/09 04:57:23;;;;;;;7.28;3.45;;;;;;;2.73;73.54;100179.23;1707751;83;22028;-59
2021/12/09 04:59:51;;;;;;;8.80;3.52;;;;;;;2.69;73.64;100179.02;1706578;83;21066;-59
2021/12/09 05:02:25;;;;;;;8.30;3.65;;;;;;;2.70;73.61;100187.17;1685416;83;21081;-59
2021/12/09 05:04:47;;;;;;;7.53;3.70;;;;;;;2.77;73.54;100188.56;1716294;83;21124;-58
2021/12/09 05:07:14;;;;;;;8.05;3.75;;;;;;;2.82;73.35;100189.61;1707113;83;21263;-58
2021/12/09 05:09:49;;;;;;;6.97;3.30;;;;;;;2.84;73.40;100194.73;1662818;83;21073;-59
2021/12/09 05:12:11;;;;;;;6.55;3.35;;;;;;;2.83;73.45;100195.67;1698669;82;21621;-58
2021/12/09 05:14:38;;;;;;;7.33;3.85;;;;;;;2.77;73.52;100200.70;1738365;80;21164;-58
2021/12/09 05:17:04;;;;;;;6.95;3.33;;;;;;;2.73;73.73;100198.72;1743228;82;21170;-58
2021/12/09 05:19:31;;;;;;;8.40;4.03;;;;;;;2.76;73.59;100200.34;1737968;81;21196;-58
2021/12/09 05:21:58;;;;;;;9.75;4.12;;;;;;;2.85;73.49;100210.72;1710428;82;21324;-58
2021/12/09 05:24:24;;;;;;;7.20;3.70;;;;;;;2.88;73.28;100210.56;1735166;80;21547;-58
2021/12/09 05:26:54;;;;;;;8.33;4.28;;;;;;;2.84;73.43;100218.98;1730806;80;21081;-58
2021/12/09 05:29:28;;;;;;;8.60;4.00;;;;;;;2.82;73.62;100214.77;1708514;82;22197;-58
2021/12/09 05:32:10;;;;;;;8.95;3.72;;;;;;;2.79;73.54;100215.74;1735517;80;21082;-57
2021/12/09 05:34:47;;;;;;;8.85;4.00;;;;;;;2.77;73.50;100217.16;1738537;82;21117;-57
2021/12/09 05:37:19;;;;;;;8.10;3.40;;;;;;;2.82;73.40;100222.09;1733286;80;21136;-56
2021/12/09 05:39:46;;;;;;;9.00;3.77;;;;;;;2.81;73.50;100221.73;1702454;82;21090;-57
2021/12/09 05:42:13;;;;;;;8.68;3.87;;;;;;;2.76;73.64;100234.11;1738128;82;21151;-57
2021/12/09 05:44:40;;;;;;;8.15;3.75;;;;;;;2.71;73.78;100231.73;1731833;82;21594;-58
2021/12/09 05:47:07;;;;;;;8.28;3.85;;;;;;;2.71;73.93;100237.41;1730355;80;21050;-59
2021/12/09 05:49:38;;;;;;;7.83;3.12;;;;;;;2.77;73.80;100236.64;1712744;82;21544;-58
2021/12/09 05:52:06;;;;;;;7.55;3.90;;;;;;;2.84;73.64;100240.20;1733227;82;21562;-58
2021/12/09 05:54:33;;;;;;;9.80;4.00;;;;;;;2.87;73.68;100234.86;1730089;80;21398;-58
2021/12/09 05:56:59;;;;;;;7.72;4.08;;;;;;;2.86;73.68;100244.43;1730074;80;21041;-59
2021/12/09 05:59:26;;;;;;;7.53;3.87;;;;;;;2.83;73.82;100245.88;1726213;80;21121;-59
2021/12/09 06:01:53;;;;;;;8.10;3.25;;;;;;;2.81;73.83;100250.31;1737328;81;21071;-57
2021/12/09 06:04:21;;;;;;;9.80;3.92;;;;;;;2.82;73.73;100259.77;1735881;80;21091;-57
2021/12/09 06:06:47;;;;;;;12.30;3.02;;;;;;;2.95;73.73;100266.51;1717557;82;21079;-58
2021/12/09 06:09:14;;;;;;;8.55;4.12;;;;;;;3.06;73.58;100276.36;1725237;80;21086;-57
2021/12/09 06:11:41;;;;;;;10.63;4.42;;;;;;;3.13;73.67;100275.98;1740620;80;21044;-59
2021/12/09 06:14:08;;;;;;;8.88;4.20;;;;;;;3.18;73.56;100278.79;1761003;80;21086;-57
2021/12/09 06:16:35;;;;;;;6.83;3.65;;;;;;;3.21;73.54;100282.54;1756188;80;21020;-57
2021/12/09 06:19:02;;;;;;;8.55;4.10;;;;;;;3.18;73.03;100278.35;1750834;80;21162;-57
2021/12/09 06:21:29;;;;;;;12.65;3.90;;;;;;;3.09;72.77;100283.56;1758655;80;21022;-58
2021/12/09 06:23:57;;;;;;;8.28;4.00;;;;;;;3.03;72.92;100286.47;1733373;80;21102;-58
2021/12/09 06:26:23;;;;;;;8.45;4.37;;;;;;;3.05;72.89;100284.63;1737977;80;21031;-58
2021/12/09 06:28:50;;;;;;;8.78;4.87;;;;;;;3.09;73.00;100293.10;1756065;80;21462;-59
2021/12/09 06:31:16;;;;;;;8.03;4.12;;;;;;;3.12;73.01;100294.25;1751835;80;21145;-59
2021/12/09 06:33:44;;;;;;;9.95;4.22;;;;;;;3.08;73.22;100300.54;1754351;80;21588;-59
2021/12/09 06:36:10;;;;;;;9.48;4.62;;;;;;;3.02;73.38;100297.77;1742026;80;21043;-59
2021/12/09 06:38:37;;;;;;;9.90;4.37;;;;;;;2.99;73.45;100301.81;1757263;80;21027;-59
2021/12/09 06:41:03;;;;;;;7.97;4.03;;;;;;;2.95;73.54;100305.03;1752118;80;20933;-59
2021/12/09 06:43:30;;;;;;;9.40;4.25;;;;;;;2.97;73.59;100303.19;1758470;80;21063;-59
2021/12/09 06:45:57;;;;;;;7.58;3.37;;;;;;;3.06;73.47;100311.02;1757576;80;20967;-57
2021/12/09 06:48:24;;;;;;;12.93;4.37;;;;;;;3.16;73.43;100312.23;1750940;80;21426;-58
2021/12/09 06:50:50;;;;;;;7.67;4.37;;;;;;;3.22;73.25;100313.67;1702069;82;22013;-58
2021/12/09 06:53:16;;;;;;;12.23;5.17;;;;;;;3.18;73.39;100316.05;1752318;80;21005;-56
2021/12/09 06:55:44;;;;;;;9.95;4.90;;;;;;;3.19;73.55;100322.09;1734338;80;21021;-57
2021/12/09 06:58:11;;;;;;;11.83;5.08;;;;;;;3.19;73.49;100321.62;1755040;80;21027;-58
2021/12/09 07:00:43;;;;;;;7.60;3.72;;;;;;;3.18;73.39;100324.30;1726351;82;21108;-57
2021/12/09 07:03:10;;;;;;;8.88;4.80;;;;;;;3.16;73.20;100328.27;1700609;82;21058;-58
2021/12/09 07:05:37;;;;;;;10.30;5.15;;;;;;;3.21;73.05;100329.34;1753117;80;21078;-59
2021/12/09 07:08:05;;;;;;;8.55;4.45;;;;;;;3.20;72.93;100334.19;1735702;80;21071;-59
2021/12/09 07:10:31;;;;;;;9.73;4.92;;;;;;;3.10;73.12;100333.33;1756149;79;21098;-59
2021/12/09 07:12:58;;;;;;;10.65;5.03;;;;;;;3.06;73.48;100337.01;1773599;80;21448;-58
2021/12/09 07:15:25;;;;;;;10.25;4.62;;;;;;;3.03;73.50;100341.05;1772977;80;20955;-58
2021/12/09 07:17:51;;;;;;;8.70;4.40;;;;;;;3.00;73.52;100332.57;1761769;80;21059;-58
2021/12/09 07:20:20;;;;;;;8.95;4.72;;;;;;;3.08;73.57;100335.17;1740379;80;21585;-58
2021/12/09 07:22:48;;;;;;;10.32;4.47;;;;;;;3.14;73.51;100337.91;1760808;80;21031;-58
2021/12/09 07:25:15;;;;;;;9.63;4.70;;;;;;;3.08;73.52;100331.27;1762685;80;21483;-61
2021/12/09 07:27:42;;;;;;;13.98;5.03;;;;;;;3.05;73.88;100337.91;1763630;79;21051;-59
2021/12/09 07:30:09;;;;;;;10.13;4.97;;;;;;;3.03;73.97;100337.62;1734345;80;21652;-58
2021/12/09 07:32:38;;;;;;;10.70;5.05;;;;;;;3.02;73.93;100340.66;1765435;80;21134;-59
2021/12/09 07:35:06;;;;;;;9.48;5.08;;;;;;;3.06;73.84;100340.91;1766968;80;20900;-59
2021/12/09 07:37:33;;;;;;;11.53;5.40;;;;;;;3.06;73.89;100347.84;1771927;80;21079;-59
2021/12/09 07:40:00;;;;;;;10.65;5.05;;;;;;;2.98;74.24;100348.23;1764822;80;21067;-60
2021/12/09 07:42:27;;;;;;;9.40;4.55;;;;;;;2.93;74.60;100348.45;1760472;80;21086;-60
2021/12/09 07:44:53;;;;;;;10.95;5.42;;;;;;;2.90;74.65;100346.00;1740610;80;21083;-59
2021/12/09 07:47:19;;;;;;;10.38;4.80;;;;;;;2.92;74.58;100354.56;1764498;80;21005;-58
2021/12/09 07:49:46;;;;;;;8.43;4.80;;;;;;;2.91;74.75;100348.16;1764608;80;21135;-59
2021/12/09 07:52:13;;;;;;;14.20;5.90;;;;;;;2.86;75.01;100356.18;1765229;80;21026;-60
2021/12/09 07:54:39;;;;;;;10.88;4.75;;;;;;;2.82;75.26;100352.49;1767992;80;21046;-59
2021/12/09 07:57:05;;;;;;;10.08;4.92;;;;;;;2.83;75.42;100362.81;1740324;80;22167;-58
2021/12/09 07:59:32;;;;;;;10.85;4.28;;;;;;;2.92;75.41;100364.95;1760768;80;21097;-60
2021/12/09 08:01:58;;;;;;;10.25;5.45;;;;;;;3.02;75.37;100370.55;1702592;82;21046;-60
2021/12/09 08:04:24;;;;;;;11.93;5.15;;;;;;;3.06;75.27;100370.80;1744240;80;21673;-59
2021/12/09 08:06:50;;;;;;;9.90;5.28;;;;;;;3.05;75.27;100377.38;1771442;80;21034;-59
2021/12/09 08:09:17;;;;;;;12.82;5.47;;;;;;;3.00;75.32;100371.09;1733311;80;21599;-59
2021/12/09 08:11:44;;;;;;;11.57;5.08;;;;;;;2.96;75.34;100378.67;1755277;80;21008;-59
2021/12/09 08:14:11;;;;;;;9.78;5.15;;;;;;;2.96;75.29;100382.11;1756673;80;21665;-59
2021/12/09 08:16:39;;;;;;;13.98;6.12;;;;;;;3.01;75.13;100384.48;1753230;80;21031;-59
2021/12/09 08:19:06;;;;;;;10.53;5.35;;;;;;;3.05;75.09;100385.17;1756470;80;21072;-59
2021/12/09 08:21:35;;;;;;;8.93;5.47;;;;;;;3.02;75.17;100390.52;1758809;80;21109;-59
2021/12/09 08:24:01;;;;;;;10.35;4.97;;;;;;;2.92;75.25;100385.75;1736350;80;21039;-59
2021/12/09 08:26:28;;;;;;;10.50;5.00;;;;;;;2.89;75.61;100391.56;1732059;80;21035;-59
2021/12/09 08:28:54;;;;;;;10.60;5.62;;;;;;;2.92;75.53;100389.65;1750663;80;21042;-58
2021/12/09 08:31:21;;;;;;;9.73;5.03;;;;;;;3.00;75.31;100394.48;1754804;80;21086;-59
2021/12/09 08:33:47;;;;;;;10.98;6.00;;;;;;;3.03;75.10;100396.11;1751416;80;21958;-59
2021/12/09 08:36:14;;;;;;;12.05;5.17;;;;;;;3.02;75.36;100396.55;1756067;80;21370;-59
2021/12/09 08:38:41;;;;;;;11.55;5.60;;;;;;;3.00;75.60;100390.59;1753082;80;21100;-59
2021/12/09 08:41:08;;;;;;;9.73;4.78;;;;;;;2.99;75.48;100388.89;1755407;79;21066;-58
2021/12/09 08:43:36;;;;;;;10.35;5.15;;;;;;;2.99;75.44;100388.89;1748658;80;21041;-59
2021/12/09 08:46:03;;;;;;;9.95;5.00;;;;;;;3.05;75.28;100391.20;1749611;80;21128;-59
2021/12/09 08:48:29;;;;;;;11.38;5.00;;;;;;;3.11;75.34;100388.76;1749661;80;21068;-59
2021/12/09 08:50:55;;;;;;;10.93;5.40;;;;;;;3.13;75.31;100391.68;1753075;80;21495;-59
2021/12/09 08:53:24;;;;;;;11.05;6.25;;;;;;;3.12;75.52;100387.85;1751417;80;22204;-59
2021/12/09 08:55:50;;;;;;;11.83;5.83;;;;;;;3.14;75.54;100397.71;1748533;80;21011;-59
2021/12/09 08:58:17;;;;;;;9.58;5.20;;;;;;;3.10;75.45;100395.72;1756553;80;22338;-60
2021/12/09 09:00:45;;;;;;;11.00;6.10;;;;;;;3.12;75.29;100386.55;1749837;80;21019;-59
2021/12/09 09:03:11;;;;;;;10.58;5.65;;;;;;;3.18;75.04;100386.27;1754609;80;21107;-58
2021/12/09 09:05:40;;;;;;;11.22;5.70;;;;;;;3.23;74.96;100384.71;1755569;80;21027;-59
2021/12/09 09:08:07;;;;;;;13.90;6.25;;;;;;;3.27;75.04;100386.26;1748884;80;22265;-58
2021/12/09 09:10:37;;;;;;;12.82;6.83;;;;;;;3.29;75.12;100390.92;1758053;80;21204;-59
2021/12/09 09:13:04;;;;;;;10.70;5.75;;;;;;;3.26;75.17;100380.66;1752540;80;21571;-59
2021/12/09 09:15:31;;;;;;;14.07;6.47;;;;;;;3.23;75.15;100378.21;1751946;80;21093;-59
2021/12/09 09:18:00;;;;;;;10.80;6.15;;;;;;;3.23;74.89;100374.31;1755439;80;21058;-59
2021/12/09 09:20:28;;;;;;;10.93;5.83;;;;;;;3.29;74.62;100386.55;1734696;80;21050;-58
2021/12/09 09:22:54;;;;;;;10.58;5.85;;;;;;;3.30;74.65;100386.94;1755637;80;21119;-58
2021/12/09 09:25:28;;;;;;;12.03;5.90;;;;;;;3.26;74.74;100382.83;1757527;80;21155;-58
2021/12/09 09:27:50;;;;;;;10.03;5.42;;;;;;;3.23;74.83;100384.27;1757286;80;21559;-59
2021/12/09 09:30:18;;;;;;;12.73;5.67;;;;;;;3.24;74.83;100381.20;1752042;80;21122;-60
2021/12/09 09:32:49;;;;;;;11.93;5.12;;;;;;;3.32;74.53;100385.10;1748464;80;21078;-60
2021/12/09 09:35:17;;;;;;;10.63;5.67;;;;;;;3.37;74.47;100386.65;1736160;80;21151;-60
2021/12/09 09:37:44;;;;;;;9.48;5.67;;;;;;;3.40;74.50;100387.80;1747734;80;21023;-59
2021/12/09 09:40:15;;;;;;;8.83;5.45;;;;;;;3.35;74.56;100384.12;1741755;80;22337;-58
2021/12/09 09:45:12;;;;;;;12.55;5.85;;;;;;;3.28;74.42;100377.55;1758037;80;21543;-59
2021/12/09 09:47:38;;;;;;;11.90;5.03;;;;;;;3.21;74.39;100375.72;1736326;80;22316;-60
2021/12/09 09:50:07;;;;;;;11.65;5.35;;;;;;;3.22;74.34;100374.78;1735943;80;21067;-58
2021/12/09 09:52:34;;;;;;;10.20;5.03;;;;;;;3.28;74.30;100375.78;1753291;80;21078;-58
2021/12/09 09:55:02;;;;;;;10.20;4.97;;;;;;;3.33;74.43;100375.09;1753917;80;21028;-59
2021/12/09 09:57:28;;;;;;;10.70;5.70;;;;;;;3.32;74.57;100379.07;1752301;80;21019;-60
2021/12/09 09:59:55;;;;;;;13.20;5.75;;;;;;;3.30;74.59;100379.14;1738273;80;21826;-60
2021/12/09 10:02:21;;;;;;;10.65;5.42;;;;;;;3.26;74.33;100381.53;1696666;83;21064;-59
2021/12/09 10:04:49;;;;;;;10.13;4.53;;;;;;;3.23;74.31;100380.81;1754936;80;21508;-59
2021/12/09 10:07:19;;;;;;;11.00;5.60;;;;;;;3.30;74.29;100384.81;1753386;80;21055;-58
2021/12/09 10:09:46;;;;;;;9.50;5.62;;;;;;;3.30;74.35;100384.34;1763334;80;21043;-58
2021/12/09 10:12:12;;;;;;;12.88;7.17;;;;;;;3.25;74.50;100385.03;1732957;80;21149;-58
2021/12/09 10:14:39;;;;;;;11.50;6.05;;;;;;;3.22;74.62;100379.98;1737725;80;22006;-60
2021/12/09 10:17:15;;;;;;;10.93;5.95;;;;;;;3.18;74.71;100385.40;1753186;80;21091;-59
2021/12/09 10:19:57;;;;;;;10.58;6.37;;;;;;;3.20;74.86;100374.48;1751522;80;21603;-59
2021/12/09 10:22:27;;;;;;;9.98;5.35;;;;;;;3.32;74.63;100389.47;1745341;80;21150;-58
2021/12/09 10:24:55;;;;;;;11.80;5.45;;;;;;;3.34;74.46;100385.86;1729374;80;22188;-58
2021/12/09 10:27:28;;;;;;;13.30;6.10;;;;;;;3.32;74.53;100390.77;1752768;80;21008;-58
2021/12/09 10:30:14;;;;;;;10.23;6.17;;;;;;;3.29;74.75;100390.92;1752937;80;21456;-57
2021/12/09 10:32:41;;;;;;;;;;;;;;;3.26;74.93;100388.03;1756690;80;20976;-56
2021/12/09 10:35:15;;;;;;;11.33;5.58;;;;;;;3.30;74.75;100391.31;1759992;80;20111;-56
2021/12/09 10:37:43;;;;;;;14.03;7.80;;;;;;;3.33;74.52;100389.40;1754891;80;21108;-58
2021/12/09 10:40:25;;;;;;;13.60;7.10;;;;;;;3.33;74.49;100393.77;1739822;80;20975;-58
2021/12/09 10:42:58;;;;;;;13.18;6.37;;;;;;;3.29;74.76;100390.92;1757322;80;21018;-59
2021/12/09 10:45:31;;;;;;;11.70;6.70;;;;;;;3.29;74.85;100394.82;1707115;81;21019;-59
2021/12/09 10:48:04;;;;;;;10.55;5.75;;;;;;;3.25;74.83;100395.91;1739535;80;21110;-60
2021/12/09 10:50:43;;;;;;;11.38;4.92;;;;;;;3.27;74.72;100394.06;1730557;80;21078;-59
2021/12/09 10:53:32;;;;;;;9.40;5.35;;;;;;;3.33;74.58;100391.17;1751267;80;21193;-59
2021/12/09 10:55:54;;;;;;;9.13;4.80;;;;;;;3.39;74.48;100393.91;1731941;80;21564;-58
2021/12/09 10:58:25;;;;;;;12.40;6.07;;;;;;;3.39;74.62;100395.21;1748412;80;21051;-58
2021/12/09 11:00:57;;;;;;;12.58;6.35;;;;;;;3.33;74.69;100392.47;1759003;80;20998;-58
2021/12/09 11:03:27;;;;;;;11.50;5.75;;;;;;;3.27;74.75;100403.16;1731733;80;21884;-57
2021/12/09 11:06:06;;;;;;;9.68;5.78;;;;;;;3.22;74.87;100401.25;1756238;80;21075;-59
2021/12/09 11:08:55;;;;;;;8.78;4.95;;;;;;;3.25;74.87;100400.63;1732010;80;21062;-58
2021/12/09 11:11:37;;;;;;;14.20;6.33;;;;;;;3.38;74.73;100402.19;1715782;82;21070;-58
2021/12/09 11:14:13;;;;;;;11.90;5.72;;;;;;;3.42;74.55;100397.20;1727319;81;21328;-59
2021/12/09 11:16:51;;;;;;;11.57;5.55;;;;;;;3.39;74.50;100396.05;1707948;82;22109;-59
2021/12/09 11:19:46;;;;;;;11.97;5.97;;;;;;;3.34;74.53;100396.73;1717210;81;22228;-59
2021/12/09 11:22:07;;;;;;;10.08;5.28;;;;;;;3.25;74.48;100393.30;1722026;81;21566;-59
2021/12/09 11:24:39;;;;;;;12.58;5.62;;;;;;;3.22;74.54;100391.68;1700342;81;21026;-59
2021/12/09 11:27:14;;;;;;;12.07;6.25;;;;;;;3.28;74.43;100389.25;1719797;81;22131;-58
2021/12/09 11:29:47;;;;;;;11.43;6.08;;;;;;;3.30;74.68;100390.02;1728288;81;21125;-60
2021/12/09 11:32:31;;;;;;;11.00;6.85;;;;;;;3.29;74.84;100390.92;1692454;82;21144;-60
2021/12/09 11:35:09;;;;;;;17.35;6.37;;;;;;;3.27;74.94;100390.99;1701827;81;21092;-58
2021/12/09 11:37:38;;;;;;;10.32;6.22;;;;;;;3.23;74.80;100387.31;1694342;83;21941;-58
2021/12/09 11:40:31;;;;;;;10.90;5.35;;;;;;;3.26;74.86;100396.27;1662829;82;22405;-59
2021/12/09 11:42:57;;;;;;;10.30;5.87;;;;;;;3.33;74.69;100394.59;1726682;81;21104;-59